Time;durP1;ratioP1;P1;durP2;ratioP2;P2;SDS_P1;SDS_P2;PMS_P1;PMS_P2;Temp;Humidity;BMP_temperature;BMP_pressure;BME280_temperature;BME280_humidity;BME280_pressure;Samples;Min_cycle;Max_cycle;Signal;HPM_P1;HPM_P2
2021/04/15 00:01:20;;;;;;;9.67;8.87;;;4.50;81.10;;;;;;10542635;28;20203;-79
2021/04/15 00:06:24;;;;;;;9.63;8.83;;;4.50;80.70;;;;;;10541923;28;20214;-79
2021/04/15 00:11:29;;;;;;;10.10;9.00;;;4.40;81.10;;;;;;10542514;28;20199;-79
2021/04/15 00:16:32;;;;;;;11.30;10.10;;;4.40;81.30;;;;;;10541451;28;20226;-79
2021/04/15 00:21:34;;;;;;;10.83;9.73;;;4.30;81.60;;;;;;10524751;28;20204;-79
2021/04/15 00:26:37;;;;;;;11.73;10.73;;;4.30;81.90;;;;;;10539257;28;20575;-79
2021/04/15 00:31:39;;;;;;;11.33;10.23;;;4.20;82.50;;;;;;10540660;28;20863;-80
2021/04/15 00:36:44;;;;;;;11.40;10.33;;;4.20;82.30;;;;;;10539106;28;20273;-79
2021/04/15 00:41:46;;;;;;;11.70;10.60;;;4.20;82.30;;;;;;10545707;28;20176;-79
2021/04/15 00:46:57;;;;;;;11.63;10.53;;;4.20;81.90;;;;;;10541693;28;20215;-79
2021/04/15 00:52:02;;;;;;;10.80;9.90;;;4.10;82.10;;;;;;10543420;28;20203;-79
2021/04/15 00:57:07;;;;;;;12.47;11.37;;;4.10;82.30;;;;;;10526303;28;20336;-79
2021/04/15 01:02:13;;;;;;;12.33;11.23;;;4.10;82.30;;;;;;10537981;28;20203;-79
2021/04/15 01:07:14;;;;;;;12.00;10.90;;;4.00;82.10;;;;;;10550379;28;20215;-79
2021/04/15 01:12:40;;;;;;;13.23;11.83;;;4.00;82.30;;;;;;10542038;28;20190;-79
2021/04/15 01:17:50;;;;;;;11.63;10.60;;;3.90;82.70;;;;;;10537142;28;20253;-79
2021/04/15 01:23:07;;;;;;;13.20;11.97;;;3.90;83.20;;;;;;10537754;28;20596;-78
2021/04/15 01:28:25;;;;;;;13.17;11.87;;;3.90;82.70;;;;;;10538973;28;20215;-78
2021/04/15 01:33:33;;;;;;;13.87;12.60;;;3.90;82.70;;;;;;10537088;28;20211;-78
2021/04/15 01:38:40;;;;;;;14.00;12.80;;;3.90;82.60;;;;;;10537679;28;20314;-78
2021/04/15 01:43:45;;;;;;;14.63;13.20;;;3.80;82.90;;;;;;10539240;28;20283;-78
2021/04/15 01:48:52;;;;;;;12.63;11.43;;;3.80;83.00;;;;;;10538601;28;20211;-79
2021/04/15 01:54:01;;;;;;;14.00;12.80;;;3.80;83.10;;;;;;10538747;28;20215;-78
2021/04/15 01:59:08;;;;;;;12.87;11.70;;;3.80;82.90;;;;;;10538432;28;20632;-78
2021/04/15 02:04:16;;;;;;;14.50;13.03;;;3.80;82.90;;;;;;10537164;28;20353;-78
2021/04/15 02:09:18;;;;;;;12.63;11.53;;;3.80;82.80;;;;;;10536416;28;20625;-79
2021/04/15 02:14:25;;;;;;;13.07;11.97;;;3.80;82.90;;;;;;10539340;28;20236;-78
2021/04/15 02:19:33;;;;;;;14.10;11.57;;;3.80;82.90;;;;;;10538032;28;20199;-79
2021/04/15 02:24:39;;;;;;;12.10;11.10;;;3.70;82.90;;;;;;10537506;28;20204;-78
2021/04/15 02:29:45;;;;;;;13.07;11.97;;;3.60;82.90;;;;;;10540653;28;20286;-78
2021/04/15 02:34:51;;;;;;;13.60;12.20;;;3.60;83.00;;;;;;10544789;28;20224;-78
2021/04/15 02:39:59;;;;;;;14.53;13.20;;;3.50;83.20;;;;;;10546834;28;20295;-79
2021/04/15 02:45:17;;;;;;;14.93;13.33;;;3.50;83.20;;;;;;10548783;28;20215;-79
2021/04/15 02:50:23;;;;;;;14.07;12.77;;;3.50;83.70;;;;;;10538761;28;20206;-78
2021/04/15 02:55:29;;;;;;;15.83;14.40;;;3.50;83.40;;;;;;10575200;22;20226;-82
2021/04/15 03:00:34;;;;;;;16.87;15.27;;;3.50;83.60;;;;;;10528018;28;20287;-81
2021/04/15 03:05:41;;;;;;;15.80;14.50;;;3.50;83.60;;;;;;10540784;28;20288;-82
2021/04/15 03:10:48;;;;;;;17.70;16.00;;;3.50;83.80;;;;;;10541579;28;20264;-82
2021/04/15 03:15:54;;;;;;;18.00;16.27;;;3.50;83.90;;;;;;10526102;28;20220;-82
2021/04/15 03:21:04;;;;;;;15.67;14.10;;;3.40;84.00;;;;;;10527760;28;20295;-82
2021/04/15 03:26:16;;;;;;;15.80;14.37;;;3.40;83.80;;;;;;10541941;28;20222;-81
2021/04/15 03:31:25;;;;;;;15.23;13.93;;;3.30;84.00;;;;;;10523466;28;20253;-82
2021/04/15 03:36:33;;;;;;;14.33;13.07;;;3.20;83.90;;;;;;10524806;28;20369;-82
2021/04/15 03:41:40;;;;;;;14.90;13.47;;;3.20;84.50;;;;;;10526352;28;20218;-81
2021/04/15 03:46:45;;;;;;;15.13;13.70;;;3.20;84.30;;;;;;10522494;28;20666;-81
2021/04/15 03:51:50;;;;;;;14.30;13.00;;;3.20;84.40;;;;;;10526570;28;20196;-82
2021/04/15 03:56:55;;;;;;;14.70;13.30;;;3.10;84.40;;;;;;10531445;28;20251;-81
2021/04/15 04:02:01;;;;;;;14.87;13.50;;;3.20;84.80;;;;;;10525427;28;20655;-82
2021/04/15 04:07:07;;;;;;;13.73;12.43;;;3.20;85.20;;;;;;10543256;28;20218;-82
2021/04/15 04:12:13;;;;;;;13.20;12.00;;;3.10;84.70;;;;;;10546043;28;20180;-82
2021/04/15 04:17:18;;;;;;;14.60;12.97;;;3.10;85.00;;;;;;10526041;28;20268;-81
2021/04/15 04:22:28;;;;;;;14.07;12.70;;;3.10;84.80;;;;;;10542191;28;20199;-81
2021/04/15 04:27:35;;;;;;;13.03;11.93;;;3.10;85.30;;;;;;10525242;28;20238;-82
2021/04/15 04:32:38;;;;;;;13.17;11.97;;;3.20;85.00;;;;;;10524855;28;20229;-82
2021/04/15 04:37:44;;;;;;;13.73;12.53;;;3.10;85.20;;;;;;10525523;28;20695;-82
2021/04/15 04:42:52;;;;;;;13.40;12.10;;;3.10;85.10;;;;;;10544421;28;20192;-81
2021/04/15 04:47:58;;;;;;;13.60;12.40;;;3.10;85.00;;;;;;10541785;28;20204;-82
2021/04/15 04:53:04;;;;;;;13.53;12.13;;;3.00;85.40;;;;;;10525797;28;20556;-81
2021/04/15 04:58:11;;;;;;;13.90;12.60;;;3.00;85.30;;;;;;10539088;28;20628;-82
2021/04/15 05:03:20;;;;;;;13.73;12.33;;;3.00;85.50;;;;;;10538460;28;20636;-78
2021/04/15 05:08:26;;;;;;;12.73;11.57;;;3.00;85.60;;;;;;10540787;28;20215;-78
2021/04/15 05:13:31;;;;;;;14.70;13.30;;;3.00;85.40;;;;;;10540488;28;20199;-78
2021/04/15 05:18:32;;;;;;;12.40;11.20;;;3.00;85.60;;;;;;10523821;28;20226;-79
2021/04/15 05:23:41;;;;;;;13.40;12.13;;;3.10;85.60;;;;;;10540647;28;20200;-78
2021/04/15 05:28:44;;;;;;;12.90;11.20;;;3.10;85.70;;;;;;10539567;28;20279;-78
2021/04/15 05:33:46;;;;;;;12.70;11.50;;;3.20;85.50;;;;;;10539531;28;20208;-78
2021/04/15 05:38:52;;;;;;;11.90;10.33;;;3.30;85.00;;;;;;10522221;28;20220;-78
2021/04/15 05:43:57;;;;;;;10.80;9.80;;;3.40;85.00;;;;;;10541386;28;20192;-78
2021/04/15 05:49:02;;;;;;;12.43;10.10;;;3.50;84.90;;;;;;10539472;28;20290;-78
2021/04/15 05:54:10;;;;;;;10.00;8.90;;;3.50;84.40;;;;;;10538326;28;20231;-78
2021/04/15 05:59:16;;;;;;;7.70;6.40;;;3.60;83.70;;;;;;10540739;28;20215;-78
2021/04/15 06:04:25;;;;;;;7.60;6.90;;;3.80;83.70;;;;;;10547948;28;20570;-78
2021/04/15 06:09:28;;;;;;;12.63;6.80;;;4.00;82.50;;;;;;10549984;28;20217;-79
2021/04/15 06:14:37;;;;;;;8.00;7.20;;;4.10;80.20;;;;;;10545261;28;20260;-78
2021/04/15 06:19:45;;;;;;;6.70;6.10;;;4.10;80.10;;;;;;10528755;28;20200;-78
2021/04/15 06:24:55;;;;;;;6.33;5.80;;;4.20;78.90;;;;;;10530622;28;20639;-78
2021/04/15 06:30:01;;;;;;;7.03;6.43;;;4.30;79.50;;;;;;10546072;28;20261;-77
2021/04/15 06:35:05;;;;;;;7.83;7.10;;;4.30;79.60;;;;;;10529241;28;20630;-78
2021/04/15 06:40:46;;;;;;;7.90;6.57;;;4.40;78.70;;;;;;10547403;28;20571;-78
2021/04/15 06:46:04;;;;;;;7.40;6.70;;;4.50;79.60;;;;;;10497225;28;20208;-78
2021/04/15 06:51:26;;;;;;;8.67;6.87;;;4.60;79.40;;;;;;10546383;28;20196;-79
2021/04/15 06:56:36;;;;;;;7.40;6.70;;;4.70;78.90;;;;;;10544565;28;20219;-78
2021/04/15 07:01:54;;;;;;;7.77;6.90;;;4.90;76.90;;;;;;10551556;28;20203;-79
2021/04/15 07:07:06;;;;;;;7.97;7.00;;;5.00;77.80;;;;;;10541618;28;20215;-76
2021/04/15 07:12:35;;;;;;;6.83;6.23;;;5.10;77.10;;;;;;10521352;28;20617;-77
2021/04/15 07:17:55;;;;;;;7.40;6.50;;;5.20;77.20;;;;;;10539593;28;20699;-77
2021/04/15 07:23:32;;;;;;;6.70;6.13;;;5.40;76.50;;;;;;10539891;28;20204;-77
2021/04/15 07:29:09;;;;;;;6.87;6.27;;;5.50;75.60;;;;;;10539595;28;20265;-77
2021/04/15 07:34:39;;;;;;;7.07;6.00;;;5.60;74.40;;;;;;10542273;28;20302;-78
2021/04/15 07:40:11;;;;;;;8.60;6.80;;;5.80;73.40;;;;;;10549011;28;20567;-78
2021/04/15 07:45:18;;;;;;;6.53;6.00;;;5.90;74.20;;;;;;10538550;28;20702;-77
2021/04/15 07:50:40;;;;;;;7.00;6.40;;;6.10;74.00;;;;;;10537519;28;20610;-76
2021/04/15 07:56:14;;;;;;;6.43;5.83;;;6.50;73.40;;;;;;10538372;28;20687;-76
2021/04/15 08:01:36;;;;;;;8.90;5.97;;;6.70;70.90;;;;;;10538344;28;20188;-76
2021/04/15 08:06:52;;;;;;;6.73;6.13;;;7.20;69.60;;;;;;10538558;28;20203;-76
2021/04/15 08:12:07;;;;;;;6.57;5.97;;;7.70;68.50;;;;;;10537958;28;20723;-77
2021/04/15 08:17:33;;;;;;;6.60;6.00;;;8.00;65.40;;;;;;10536342;28;20219;-76
2021/04/15 08:23:02;;;;;;;7.40;6.43;;;8.30;65.50;;;;;;10536645;28;20204;-76
2021/04/15 08:28:32;;;;;;;8.90;7.40;;;8.60;65.20;;;;;;10541148;28;20287;-78
2021/04/15 08:34:02;;;;;;;8.73;7.33;;;8.80;65.40;;;;;;10540186;28;20606;-76
2021/04/15 08:39:26;;;;;;;6.33;5.73;;;9.20;63.60;;;;;;10535557;28;20208;-77
2021/04/15 08:44:42;;;;;;;6.77;6.07;;;9.30;62.00;;;;;;10537512;28;20188;-76
2021/04/15 08:49:55;;;;;;;6.60;6.00;;;9.40;62.10;;;;;;10534971;28;20198;-75
2021/04/15 08:55:10;;;;;;;6.20;5.77;;;9.70;59.60;;;;;;10536853;28;20227;-75
2021/04/15 09:00:29;;;;;;;6.73;6.13;;;9.80;58.80;;;;;;10536353;28;20206;-75
2021/04/15 09:05:38;;;;;;;6.80;6.27;;;9.70;59.20;;;;;;10535648;28;20216;-75
2021/04/15 09:10:52;;;;;;;6.23;5.73;;;9.90;59.90;;;;;;10536328;28;20222;-75
2021/04/15 09:16:13;;;;;;;6.87;6.30;;;10.20;57.50;;;;;;10533736;28;20228;-75
2021/04/15 09:21:27;;;;;;;6.00;5.50;;;10.20;56.70;;;;;;10535610;28;20214;-74
2021/04/15 09:26:58;;;;;;;5.90;4.90;;;10.50;55.90;;;;;;10535179;28;20679;-75
2021/04/15 09:32:07;;;;;;;5.80;5.30;;;10.90;55.60;;;;;;10534247;28;20192;-75
2021/04/15 09:37:29;;;;;;;5.43;4.93;;;11.20;55.60;;;;;;10539978;28;20215;-75
2021/04/15 09:42:51;;;;;;;5.57;5.07;;;11.50;53.10;;;;;;10544113;28;20245;-74
2021/04/15 09:48:07;;;;;;;4.10;3.73;;;11.70;54.80;;;;;;10544129;28;20208;-75
2021/04/15 09:53:31;;;;;;;5.33;4.37;;;11.80;51.50;;;;;;10543983;28;20203;-74
2021/04/15 09:58:41;;;;;;;4.20;3.90;;;12.10;51.40;;;;;;10543542;28;20216;-75
2021/04/15 10:03:58;;;;;;;4.10;3.40;;;12.40;50.10;;;;;;10543427;28;20192;-75
2021/04/15 10:09:41;;;;;;;3.67;3.37;;;12.80;49.20;;;;;;10543275;28;20231;-75
2021/04/15 10:15:02;;;;;;;3.80;3.50;;;12.80;47.50;;;;;;10490716;28;20596;-75
2021/04/15 10:20:27;;;;;;;4.33;3.87;;;12.70;48.60;;;;;;10541191;28;20206;-75
2021/04/15 10:25:33;;;;;;;5.50;3.90;;;12.60;48.40;;;;;;10542330;28;20212;-75
2021/04/15 10:31:07;;;;;;;4.73;4.30;;;12.50;49.70;;;;;;10542217;28;20189;-75
2021/04/15 10:36:53;;;;;;;4.13;3.77;;;12.40;50.50;;;;;;10540570;28;20219;-75
2021/04/15 10:42:36;;;;;;;4.80;4.30;;;12.30;51.30;;;;;;10541611;28;20183;-75
2021/04/15 10:47:53;;;;;;;4.13;3.90;;;11.90;51.90;;;;;;10539573;28;20225;-75
2021/04/15 10:53:05;;;;;;;4.43;4.13;;;11.60;52.00;;;;;;10541851;28;20647;-74
2021/04/15 10:58:32;;;;;;;3.80;3.50;;;11.40;52.30;;;;;;10540511;28;20247;-75
2021/04/15 11:03:35;;;;;;;3.67;3.37;;;11.30;50.70;;;;;;10540939;28;20215;-75
2021/04/15 11:08:37;;;;;;;5.70;4.43;;;11.30;51.10;;;;;;10540111;28;20291;-75
2021/04/15 11:13:39;;;;;;;4.20;3.90;;;11.30;50.60;;;;;;10540377;28;20214;-74
2021/04/15 11:18:42;;;;;;;3.50;3.27;;;11.20;49.20;;;;;;10540058;28;20243;-75
2021/04/15 11:23:44;;;;;;;4.70;3.37;;;11.10;50.40;;;;;;10540376;28;20276;-74
2021/04/15 11:28:46;;;;;;;4.07;3.77;;;11.10;50.00;;;;;;10539559;28;20214;-75
2021/04/15 11:33:51;;;;;;;3.90;3.60;;;11.10;50.40;;;;;;10537793;28;20222;-75
2021/04/15 11:39:16;;;;;;;3.40;3.10;;;11.20;49.70;;;;;;10539529;28;20257;-75
2021/04/15 11:44:26;;;;;;;3.93;3.63;;;11.20;49.80;;;;;;10539387;28;20180;-74
2021/04/15 11:49:31;;;;;;;3.97;3.67;;;11.00;49.70;;;;;;10539098;28;20211;-74
2021/04/15 11:54:35;;;;;;;4.13;3.83;;;10.90;49.70;;;;;;10538112;28;20703;-75
2021/04/15 11:59:38;;;;;;;4.03;3.63;;;10.70;49.30;;;;;;10538309;28;20264;-74
2021/04/15 12:04:41;;;;;;;3.60;3.40;;;10.40;50.20;;;;;;10537651;28;20249;-75
2021/04/15 12:09:43;;;;;;;3.87;3.57;;;10.10;50.40;;;;;;10537796;28;20595;-75
2021/04/15 12:14:45;;;;;;;2.63;2.53;;;9.90;51.70;;;;;;10536995;28;20231;-75
2021/04/15 12:19:55;;;;;;;3.40;3.20;;;9.90;51.10;;;;;;10537256;28;20234;-74
2021/04/15 12:25:03;;;;;;;3.40;3.20;;;9.90;49.20;;;;;;10537661;28;20211;-75
2021/04/15 12:30:10;;;;;;;3.67;3.37;;;10.00;49.40;;;;;;10537058;28;20664;-74
2021/04/15 12:35:22;;;;;;;5.30;3.70;;;10.20;48.20;;;;;;10536920;28;20219;-75
2021/04/15 12:40:28;;;;;;;3.63;3.33;;;10.10;48.30;;;;;;10536766;28;20415;-74
2021/04/15 12:45:33;;;;;;;4.13;3.73;;;10.10;47.30;;;;;;10535206;28;20730;-75
2021/04/15 12:50:37;;;;;;;3.90;3.70;;;10.10;48.40;;;;;;10536491;28;20226;-75
2021/04/15 12:55:39;;;;;;;3.93;3.63;;;10.20;47.60;;;;;;10535972;28;20219;-75
2021/04/15 13:00:45;;;;;;;4.83;3.67;;;10.30;49.90;;;;;;10536271;28;20194;-75
2021/04/15 13:06:01;;;;;;;4.13;3.67;;;10.40;49.00;;;;;;10534706;28;20231;-75
2021/04/15 13:11:05;;;;;;;3.50;3.30;;;10.40;48.50;;;;;;10535268;28;20591;-75
2021/04/15 13:16:27;;;;;;;3.30;3.10;;;10.40;49.10;;;;;;10534637;28;20699;-75
2021/04/15 13:21:32;;;;;;;4.10;3.80;;;10.50;49.00;;;;;;10535823;28;20204;-75
2021/04/15 13:26:39;;;;;;;2.90;2.70;;;10.70;50.80;;;;;;10535307;28;20200;-75
2021/04/15 13:31:44;;;;;;;3.37;3.17;;;10.80;52.10;;;;;;10535539;28;20199;-74
2021/04/15 13:36:46;;;;;;;3.50;3.30;;;10.80;51.10;;;;;;10535643;28;20290;-75
2021/04/15 13:42:30;;;;;;;3.60;3.40;;;10.60;51.30;;;;;;10535519;28;20656;-75
2021/04/15 13:47:59;;;;;;;3.53;3.23;;;10.40;51.80;;;;;;10535158;28;20758;-75
2021/04/15 13:53:55;;;;;;;4.00;3.67;;;10.30;50.70;;;;;;10534936;28;20199;-75
2021/04/15 13:58:57;;;;;;;4.90;3.60;;;10.20;50.70;;;;;;10364895;28;20321;-75
2021/04/15 14:03:59;;;;;;;3.60;3.40;;;10.20;50.10;;;;;;10494371;28;20279;-77
2021/04/15 14:09:27;;;;;;;3.90;3.60;;;10.10;50.10;;;;;;10534838;28;20215;-76
2021/04/15 14:14:47;;;;;;;3.87;3.57;;;10.00;49.40;;;;;;10530262;28;20265;-77
2021/04/15 14:19:59;;;;;;;3.97;3.67;;;10.00;49.60;;;;;;10534716;28;20187;-77
2021/04/15 14:25:10;;;;;;;3.37;3.17;;;9.90;50.20;;;;;;10541022;28;20253;-77
2021/04/15 14:30:16;;;;;;;3.80;3.53;;;9.90;50.00;;;;;;10540937;28;20236;-77
2021/04/15 14:35:21;;;;;;;4.23;3.83;;;10.20;49.50;;;;;;10541226;28;20215;-76
2021/04/15 14:40:33;;;;;;;4.10;3.80;;;10.50;49.40;;;;;;10542449;28;20188;-77
2021/04/15 14:45:36;;;;;;;4.83;4.47;;;10.50;51.10;;;;;;10541196;28;20207;-76
2021/04/15 14:50:39;;;;;;;4.23;3.97;;;10.40;50.60;;;;;;10541374;28;20192;-77
2021/04/15 14:55:42;;;;;;;3.93;3.63;;;10.20;49.80;;;;;;10565924;22;20356;-80
2021/04/15 15:00:48;;;;;;;3.73;3.53;;;10.10;50.20;;;;;;10560134;28;20184;-80
2021/04/15 15:05:50;;;;;;;4.07;3.77;;;9.90;50.70;;;;;;10559960;28;20500;-81
2021/04/15 15:10:57;;;;;;;4.50;4.20;;;9.80;50.90;;;;;;10561249;28;20713;-80
2021/04/15 15:15:59;;;;;;;4.67;4.33;;;9.80;50.70;;;;;;10563295;28;20297;-80
2021/04/15 15:21:18;;;;;;;4.93;4.53;;;9.70;52.50;;;;;;10543930;28;20261;-81
2021/04/15 15:26:34;;;;;;;4.77;4.47;;;9.70;53.20;;;;;;10536600;28;20212;-83
2021/04/15 15:31:38;;;;;;;4.73;4.27;;;9.70;53.80;;;;;;10539580;28;20254;-82
2021/04/15 15:36:40;;;;;;;4.73;4.27;;;9.70;53.40;;;;;;10544247;28;20229;-83
2021/04/15 15:41:48;;;;;;;4.33;4.03;;;10.00;52.20;;;;;;10538028;28;20203;-82
2021/04/15 15:46:57;;;;;;;5.23;4.83;;;10.60;50.70;;;;;;10524466;28;20478;-84
2021/04/15 15:52:05;;;;;;;5.07;4.57;;;10.90;49.60;;;;;;10538378;28;20200;-83
2021/04/15 15:57:12;;;;;;;4.50;4.20;;;10.90;54.40;;;;;;10525406;28;20585;-82
2021/04/15 16:02:21;;;;;;;4.90;4.50;;;10.60;57.30;;;;;;10527436;28;20228;-82
2021/04/15 16:07:27;;;;;;;3.77;3.47;;;10.40;57.70;;;;;;10546647;28;20212;-83
2021/04/15 16:12:39;;;;;;;4.63;4.23;;;10.20;55.30;;;;;;10526604;28;20265;-83
2021/04/15 16:17:43;;;;;;;5.00;4.53;;;10.10;56.60;;;;;;10543573;28;20250;-82
2021/04/15 16:22:45;;;;;;;4.40;4.10;;;10.10;56.30;;;;;;10519070;28;20205;-81
2021/04/15 16:27:47;;;;;;;5.50;5.00;;;10.00;55.90;;;;;;10543117;28;20208;-82
2021/04/15 16:32:50;;;;;;;4.10;3.80;;;10.00;55.40;;;;;;10531696;28;20203;-81
2021/04/15 16:37:55;;;;;;;5.23;4.23;;;9.90;55.50;;;;;;10527973;28;20235;-82
2021/04/15 16:42:59;;;;;;;3.30;3.07;;;9.80;54.70;;;;;;10504661;28;20271;-82
2021/04/15 16:48:01;;;;;;;4.40;3.80;;;9.70;51.60;;;;;;10533427;28;20215;-82
2021/04/15 16:53:05;;;;;;;3.97;3.60;;;9.60;49.80;;;;;;10520613;28;20838;-83
2021/04/15 16:58:10;;;;;;;3.90;3.60;;;9.50;49.20;;;;;;10525888;28;20228;-80
2021/04/15 17:03:12;;;;;;;3.90;3.37;;;9.40;50.70;;;;;;10525523;28;20843;-80
2021/04/15 17:08:16;;;;;;;3.30;3.00;;;9.30;51.30;;;;;;10515508;28;20524;-81
2021/04/15 17:13:19;;;;;;;2.60;2.40;;;9.30;49.30;;;;;;10526497;28;20196;-81
2021/04/15 17:18:23;;;;;;;2.73;2.63;;;9.30;49.60;;;;;;10519556;28;20241;-77
2021/04/15 17:23:48;;;;;;;3.67;3.00;;;9.30;48.40;;;;;;10542258;28;20230;-79
2021/04/15 17:28:51;;;;;;;3.40;2.83;;;9.40;48.50;;;;;;10534666;28;20219;-79
2021/04/15 17:33:53;;;;;;;3.00;2.63;;;9.30;48.60;;;;;;10540710;28;20191;-81
2021/04/15 17:38:54;;;;;;;3.23;2.93;;;9.40;48.10;;;;;;10553471;28;20223;-80
2021/04/15 17:43:57;;;;;;;3.00;2.80;;;9.40;47.60;;;;;;10535700;28;20222;-80
2021/04/15 17:48:59;;;;;;;3.57;3.27;;;9.30;47.50;;;;;;10546340;28;20222;-80
2021/04/15 17:54:01;;;;;;;3.27;3.07;;;9.30;48.30;;;;;;10542806;28;20222;-80
2021/04/15 17:59:06;;;;;;;3.77;3.47;;;9.30;48.80;;;;;;10548324;28;20245;-82
2021/04/15 18:04:08;;;;;;;3.83;3.43;;;9.20;50.60;;;;;;10532177;28;20200;-81
2021/04/15 18:09:10;;;;;;;4.00;3.70;;;9.10;51.90;;;;;;10533908;28;20212;-82
2021/04/15 18:14:16;;;;;;;3.30;3.10;;;9.00;52.80;;;;;;10564274;28;20207;-81
2021/04/15 18:19:20;;;;;;;3.80;3.40;;;8.90;52.10;;;;;;10535662;28;21045;-81
2021/04/15 18:24:22;;;;;;;3.20;3.00;;;8.80;51.80;;;;;;10545696;28;20307;-81
2021/04/15 18:29:25;;;;;;;3.63;3.33;;;8.80;51.90;;;;;;10538051;28;20230;-81
2021/04/15 18:34:26;;;;;;;3.60;3.30;;;8.70;52.00;;;;;;10499846;28;20307;-80
2021/04/15 18:39:28;;;;;;;3.40;3.13;;;8.70;52.40;;;;;;10497753;28;20243;-80
2021/04/15 18:44:33;;;;;;;3.07;2.87;;;8.70;52.30;;;;;;10498641;28;20193;-82
2021/04/15 18:49:36;;;;;;;3.67;3.30;;;8.70;52.50;;;;;;10528554;28;20230;-82
2021/04/15 18:54:38;;;;;;;4.40;3.40;;;8.60;52.80;;;;;;10540041;28;20215;-82
2021/04/15 18:59:42;;;;;;;10.90;9.20;;;8.50;53.10;;;;;;10539254;28;20215;-82
2021/04/15 19:04:44;;;;;;;15.00;10.37;;;8.50;53.40;;;;;;10535453;28;20192;-82
2021/04/15 19:09:49;;;;;;;13.00;11.70;;;8.40;54.00;;;;;;10530673;28;20208;-82
2021/04/15 19:14:52;;;;;;;13.73;9.67;;;8.20;54.20;;;;;;10502252;28;20703;-82
2021/04/15 19:19:53;;;;;;;9.70;8.60;;;8.00;54.90;;;;;;10496066;28;20217;-82
2021/04/15 19:24:55;;;;;;;8.07;7.00;;;7.90;55.80;;;;;;10507777;28;20199;-81
2021/04/15 19:29:58;;;;;;;5.13;4.67;;;7.70;56.50;;;;;;10510203;28;20705;-81
2021/04/15 19:35:00;;;;;;;9.00;7.93;;;7.60;57.10;;;;;;10479234;28;20219;-80
2021/04/15 19:40:04;;;;;;;5.70;5.30;;;7.40;57.50;;;;;;10496253;28;20199;-81
2021/04/15 19:45:09;;;;;;;5.47;4.97;;;7.20;57.90;;;;;;10527109;28;20200;-82
2021/04/15 19:50:15;;;;;;;4.40;4.00;;;7.10;58.30;;;;;;10500091;28;20220;-80
2021/04/15 19:55:18;;;;;;;5.37;4.80;;;7.00;58.30;;;;;;10498614;28;20291;-80
2021/04/15 20:00:26;;;;;;;5.50;5.00;;;6.90;59.00;;;;;;10536220;28;20278;-82
2021/04/15 20:05:29;;;;;;;4.17;3.87;;;6.70;59.10;;;;;;10479689;28;20935;-82
2021/04/15 20:10:36;;;;;;;5.90;5.30;;;6.70;59.70;;;;;;10483402;28;20272;-83
2021/04/15 20:15:39;;;;;;;4.43;4.00;;;6.60;59.90;;;;;;10483229;28;20228;-81
2021/04/15 20:20:43;;;;;;;5.40;4.90;;;6.50;60.00;;;;;;10500238;28;20697;-83
2021/04/15 20:25:44;;;;;;;5.63;5.03;;;6.40;60.30;;;;;;10490456;28;20310;-81
2021/04/15 20:30:47;;;;;;;4.93;4.60;;;6.40;60.70;;;;;;10539360;28;20245;-82
2021/04/15 20:35:50;;;;;;;4.70;4.40;;;6.30;61.10;;;;;;10524082;28;20266;-82
2021/04/15 20:40:53;;;;;;;5.47;4.97;;;6.20;61.40;;;;;;10488104;28;20203;-83
2021/04/15 20:45:57;;;;;;;5.50;5.00;;;6.10;62.20;;;;;;10525789;28;20219;-83
2021/04/15 20:51:00;;;;;;;4.47;4.17;;;6.00;62.30;;;;;;10507770;28;20341;-83
2021/04/15 20:56:03;;;;;;;5.50;5.00;;;6.00;63.20;;;;;;10488569;28;20224;-83
2021/04/15 21:01:23;;;;;;;6.23;4.77;;;5.90;63.10;;;;;;10496504;28;20189;-83
2021/04/15 21:06:25;;;;;;;5.13;4.63;;;5.90;63.50;;;;;;10507414;28;20230;-80
2021/04/15 21:11:28;;;;;;;5.40;4.57;;;5.80;63.80;;;;;;10502792;28;20645;-80
2021/04/15 21:16:31;;;;;;;5.57;5.13;;;5.70;64.80;;;;;;10479558;28;20255;-81
2021/04/15 21:21:35;;;;;;;5.23;4.83;;;5.70;65.10;;;;;;10479684;28;20292;-82
2021/04/15 21:26:36;;;;;;;7.30;5.40;;;5.70;65.50;;;;;;10480340;28;20213;-82
2021/04/15 21:31:42;;;;;;;5.80;5.30;;;5.60;65.70;;;;;;10483369;28;20580;-82
2021/04/15 21:36:44;;;;;;;6.97;5.30;;;5.60;66.10;;;;;;10489900;28;20309;-81
2021/04/15 21:41:46;;;;;;;6.37;5.70;;;5.60;66.10;;;;;;10492446;28;20664;-84
2021/04/15 21:47:00;;;;;;;5.23;4.83;;;5.60;66.50;;;;;;10514241;28;20204;-82
2021/04/15 21:52:02;;;;;;;6.20;5.60;;;5.60;66.50;;;;;;10524517;28;20675;-82
2021/04/15 21:57:11;;;;;;;6.60;6.10;;;5.50;67.00;;;;;;10556087;28;20723;-82
2021/04/15 22:02:25;;;;;;;7.10;6.40;;;5.50;67.50;;;;;;10535130;28;21009;-83
2021/04/15 22:07:27;;;;;;;8.10;6.20;;;5.50;67.30;;;;;;10544796;28;20680;-82
2021/04/15 22:12:31;;;;;;;6.73;6.13;;;5.40;67.70;;;;;;10504600;28;20196;-82
2021/04/15 22:17:33;;;;;;;6.50;5.90;;;5.40;67.80;;;;;;10504389;28;20231;-83
2021/04/15 22:22:35;;;;;;;6.70;6.10;;;5.30;67.40;;;;;;10521913;28;20200;-82
2021/04/15 22:27:37;;;;;;;5.80;5.20;;;5.30;67.60;;;;;;10523666;28;20590;-82
2021/04/15 22:32:42;;;;;;;6.03;5.50;;;5.20;67.50;;;;;;10524909;28;20238;-83
2021/04/15 22:37:49;;;;;;;7.80;5.57;;;5.20;67.90;;;;;;10522120;28;20315;-82
2021/04/15 22:42:51;;;;;;;5.80;5.40;;;5.20;67.70;;;;;;10523953;28;20219;-82
2021/04/15 22:47:55;;;;;;;5.20;4.70;;;5.10;68.00;;;;;;10506412;28;20229;-82
2021/04/15 22:52:59;;;;;;;5.00;4.60;;;5.10;67.30;;;;;;10524364;28;20196;-82
2021/04/15 22:58:05;;;;;;;5.30;4.90;;;5.00;67.10;;;;;;10521219;28;20228;-82
2021/04/15 23:03:09;;;;;;;5.30;4.80;;;5.00;68.00;;;;;;10523322;28;20196;-82
2021/04/15 23:08:11;;;;;;;5.30;4.80;;;4.90;68.10;;;;;;10521925;28;20259;-82
2021/04/15 23:13:13;;;;;;;5.23;4.83;;;4.90;67.90;;;;;;10522843;28;20597;-82
2021/04/15 23:18:16;;;;;;;6.30;5.27;;;4.90;68.00;;;;;;10504663;28;20659;-83
2021/04/15 23:23:19;;;;;;;5.40;4.90;;;4.80;68.10;;;;;;10523263;28;20837;-83
2021/04/15 23:28:22;;;;;;;4.80;4.40;;;4.80;67.60;;;;;;10524339;28;20209;-83
2021/04/15 23:33:27;;;;;;;5.73;5.03;;;4.80;67.60;;;;;;10525711;28;20531;-83
2021/04/15 23:38:29;;;;;;;5.30;4.90;;;4.60;67.60;;;;;;10526894;28;20232;-82
2021/04/15 23:43:32;;;;;;;5.63;5.13;;;4.50;68.40;;;;;;10499907;28;20666;-82
2021/04/15 23:48:35;;;;;;;5.90;5.40;;;4.50;68.80;;;;;;10511487;28;20213;-82
2021/04/15 23:53:37;;;;;;;5.00;4.60;;;4.40;69.00;;;;;;10516888;28;20192;-81
2021/04/15 23:58:38;;;;;;;6.00;4.73;;;4.40;69.20;;;;;;10515480;28;20656;-82
